sensor_id;sensor_type;location;lat;lon;timestamp;P1;durP1;ratioP1;P2;durP2;ratioP2
47894;SDS011;33653;52.302;8.134;2023-08-06T00:01:35;3.58;;;3.17;;
47894;SDS011;33653;52.302;8.134;2023-08-06T00:04:04;3.97;;;2.90;;
47894;SDS011;33653;52.302;8.134;2023-08-06T00:06:32;10.30;;;3.25;;
47894;SDS011;33653;52.302;8.134;2023-08-06T00:09:00;4.65;;;3.30;;
47894;SDS011;33653;52.302;8.134;2023-08-06T00:11:29;6.95;;;3.38;;
47894;SDS011;33653;52.302;8.134;2023-08-06T00:13:57;7.97;;;4.13;;
47894;SDS011;33653;52.302;8.134;2023-08-06T00:16:26;4.18;;;2.78;;
47894;SDS011;33653;52.302;8.134;2023-08-06T00:18:54;4.78;;;2.65;;
47894;SDS011;33653;52.302;8.134;2023-08-06T00:21:22;3.80;;;3.00;;
47894;SDS011;33653;52.302;8.134;2023-08-06T00:23:50;3.03;;;2.53;;
47894;SDS011;33653;52.302;8.134;2023-08-06T00:26:19;3.97;;;2.25;;
47894;SDS011;33653;52.302;8.134;2023-08-06T00:28:47;2.97;;;2.30;;
47894;SDS011;33653;52.302;8.134;2023-08-06T00:31:16;3.88;;;3.03;;
47894;SDS011;33653;52.302;8.134;2023-08-06T00:33:44;4.30;;;3.65;;
47894;SDS011;33653;52.302;8.134;2023-08-06T00:36:12;3.95;;;2.88;;
47894;SDS011;33653;52.302;8.134;2023-08-06T00:38:40;6.18;;;3.38;;
47894;SDS011;33653;52.302;8.134;2023-08-06T00:41:09;4.35;;;3.05;;
47894;SDS011;33653;52.302;8.134;2023-08-06T00:43:37;2.65;;;2.25;;
47894;SDS011;33653;52.302;8.134;2023-08-06T00:46:05;5.95;;;3.97;;
47894;SDS011;33653;52.302;8.134;2023-08-06T00:48:34;3.67;;;2.78;;
47894;SDS011;33653;52.302;8.134;2023-08-06T00:51:02;4.88;;;2.95;;
47894;SDS011;33653;52.302;8.134;2023-08-06T00:53:30;4.32;;;3.13;;
47894;SDS011;33653;52.302;8.134;2023-08-06T00:55:59;5.65;;;3.55;;
47894;SDS011;33653;52.302;8.134;2023-08-06T00:58:27;8.45;;;3.08;;
47894;SDS011;33653;52.302;8.134;2023-08-06T01:00:56;3.33;;;2.58;;
47894;SDS011;33653;52.302;8.134;2023-08-06T01:03:24;4.00;;;2.80;;
47894;SDS011;33653;52.302;8.134;2023-08-06T01:05:53;5.30;;;3.58;;
47894;SDS011;33653;52.302;8.134;2023-08-06T01:11:18;4.45;;;3.10;;
47894;SDS011;33653;52.302;8.134;2023-08-06T01:16:48;5.28;;;2.75;;
47894;SDS011;33653;52.302;8.134;2023-08-06T01:19:18;4.47;;;3.47;;
47894;SDS011;33653;52.302;8.134;2023-08-06T01:21:47;5.47;;;3.38;;
47894;SDS011;33653;52.302;8.134;2023-08-06T01:24:16;3.92;;;2.90;;
47894;SDS011;33653;52.302;8.134;2023-08-06T01:26:49;3.72;;;2.78;;
47894;SDS011;33653;52.302;8.134;2023-08-06T01:29:38;5.32;;;3.35;;
47894;SDS011;33653;52.302;8.134;2023-08-06T01:32:14;3.97;;;3.22;;
47894;SDS011;33653;52.302;8.134;2023-08-06T01:34:44;4.45;;;3.28;;
47894;SDS011;33653;52.302;8.134;2023-08-06T01:37:14;4.85;;;3.67;;
47894;SDS011;33653;52.302;8.134;2023-08-06T01:39:42;4.20;;;2.97;;
47894;SDS011;33653;52.302;8.134;2023-08-06T01:42:11;3.97;;;2.50;;
47894;SDS011;33653;52.302;8.134;2023-08-06T01:44:39;4.47;;;3.65;;
47894;SDS011;33653;52.302;8.134;2023-08-06T01:47:08;4.43;;;2.95;;
47894;SDS011;33653;52.302;8.134;2023-08-06T01:49:36;3.15;;;2.65;;
47894;SDS011;33653;52.302;8.134;2023-08-06T01:52:05;3.67;;;2.67;;
47894;SDS011;33653;52.302;8.134;2023-08-06T01:54:33;4.78;;;3.90;;
47894;SDS011;33653;52.302;8.134;2023-08-06T01:57:02;4.43;;;2.78;;
47894;SDS011;33653;52.302;8.134;2023-08-06T01:59:31;3.85;;;2.50;;
47894;SDS011;33653;52.302;8.134;2023-08-06T02:02:00;3.17;;;2.58;;
47894;SDS011;33653;52.302;8.134;2023-08-06T02:04:28;5.03;;;2.78;;
47894;SDS011;33653;52.302;8.134;2023-08-06T02:06:57;3.28;;;2.50;;
47894;SDS011;33653;52.302;8.134;2023-08-06T02:09:25;5.75;;;3.38;;
47894;SDS011;33653;52.302;8.134;2023-08-06T02:11:53;2.95;;;2.03;;
47894;SDS011;33653;52.302;8.134;2023-08-06T02:14:21;2.90;;;2.35;;
47894;SDS011;33653;52.302;8.134;2023-08-06T02:16:50;3.90;;;2.58;;
47894;SDS011;33653;52.302;8.134;2023-08-06T02:19:18;3.88;;;3.15;;
47894;SDS011;33653;52.302;8.134;2023-08-06T02:21:46;4.22;;;2.63;;
47894;SDS011;33653;52.302;8.134;2023-08-06T02:24:15;3.50;;;2.35;;
47894;SDS011;33653;52.302;8.134;2023-08-06T02:26:43;3.33;;;2.60;;
47894;SDS011;33653;52.302;8.134;2023-08-06T02:29:14;3.42;;;2.72;;
47894;SDS011;33653;52.302;8.134;2023-08-06T02:31:43;4.07;;;2.80;;
47894;SDS011;33653;52.302;8.134;2023-08-06T02:34:11;6.65;;;2.45;;
47894;SDS011;33653;52.302;8.134;2023-08-06T02:36:40;3.65;;;2.83;;
47894;SDS011;33653;52.302;8.134;2023-08-06T02:39:08;4.45;;;3.15;;
47894;SDS011;33653;52.302;8.134;2023-08-06T02:41:36;3.40;;;2.58;;
47894;SDS011;33653;52.302;8.134;2023-08-06T02:44:05;2.97;;;2.60;;
47894;SDS011;33653;52.302;8.134;2023-08-06T02:46:33;4.90;;;3.17;;
47894;SDS011;33653;52.302;8.134;2023-08-06T02:49:01;3.58;;;2.83;;
47894;SDS011;33653;52.302;8.134;2023-08-06T02:51:30;3.38;;;2.40;;
47894;SDS011;33653;52.302;8.134;2023-08-06T02:53:58;5.50;;;3.13;;
47894;SDS011;33653;52.302;8.134;2023-08-06T02:56:26;6.82;;;2.90;;
47894;SDS011;33653;52.302;8.134;2023-08-06T02:59:04;4.78;;;2.25;;
47894;SDS011;33653;52.302;8.134;2023-08-06T03:01:52;3.03;;;2.22;;
47894;SDS011;33653;52.302;8.134;2023-08-06T03:04:34;3.00;;;2.47;;
47894;SDS011;33653;52.302;8.134;2023-08-06T03:07:02;2.63;;;2.00;;
47894;SDS011;33653;52.302;8.134;2023-08-06T03:09:39;2.50;;;2.05;;
47894;SDS011;33653;52.302;8.134;2023-08-06T03:12:08;3.38;;;2.50;;
47894;SDS011;33653;52.302;8.134;2023-08-06T03:14:37;3.10;;;2.15;;
47894;SDS011;33653;52.302;8.134;2023-08-06T03:17:07;4.22;;;2.30;;
47894;SDS011;33653;52.302;8.134;2023-08-06T03:19:37;3.42;;;2.58;;
47894;SDS011;33653;52.302;8.134;2023-08-06T03:22:06;2.47;;;2.13;;
47894;SDS011;33653;52.302;8.134;2023-08-06T03:24:36;3.70;;;2.67;;
47894;SDS011;33653;52.302;8.134;2023-08-06T03:27:04;4.55;;;2.38;;
47894;SDS011;33653;52.302;8.134;2023-08-06T03:29:33;5.20;;;2.35;;
47894;SDS011;33653;52.302;8.134;2023-08-06T03:32:01;3.38;;;2.33;;
47894;SDS011;33653;52.302;8.134;2023-08-06T03:34:30;2.72;;;2.38;;
47894;SDS011;33653;52.302;8.134;2023-08-06T03:36:58;2.25;;;2.05;;
47894;SDS011;33653;52.302;8.134;2023-08-06T03:39:27;3.22;;;2.63;;
47894;SDS011;33653;52.302;8.134;2023-08-06T03:41:55;3.67;;;2.58;;
47894;SDS011;33653;52.302;8.134;2023-08-06T03:44:25;3.08;;;2.42;;
47894;SDS011;33653;52.302;8.134;2023-08-06T03:46:55;2.70;;;2.10;;
47894;SDS011;33653;52.302;8.134;2023-08-06T03:49:23;3.22;;;2.40;;
47894;SDS011;33653;52.302;8.134;2023-08-06T03:51:53;2.45;;;1.88;;
47894;SDS011;33653;52.302;8.134;2023-08-06T03:54:21;2.33;;;2.08;;
47894;SDS011;33653;52.302;8.134;2023-08-06T03:56:49;2.15;;;1.95;;
47894;SDS011;33653;52.302;8.134;2023-08-06T03:59:18;2.83;;;2.10;;
47894;SDS011;33653;52.302;8.134;2023-08-06T04:01:47;3.35;;;2.33;;
47894;SDS011;33653;52.302;8.134;2023-08-06T04:04:16;3.28;;;2.10;;
47894;SDS011;33653;52.302;8.134;2023-08-06T04:06:45;3.03;;;2.40;;
47894;SDS011;33653;52.302;8.134;2023-08-06T04:09:13;3.53;;;2.47;;
47894;SDS011;33653;52.302;8.134;2023-08-06T04:11:42;2.75;;;2.28;;
47894;SDS011;33653;52.302;8.134;2023-08-06T04:14:10;4.00;;;2.67;;
47894;SDS011;33653;52.302;8.134;2023-08-06T04:16:38;3.20;;;2.22;;
47894;SDS011;33653;52.302;8.134;2023-08-06T04:19:07;5.20;;;2.53;;
47894;SDS011;33653;52.302;8.134;2023-08-06T04:21:36;5.13;;;2.10;;
47894;SDS011;33653;52.302;8.134;2023-08-06T04:24:04;2.92;;;2.38;;
47894;SDS011;33653;52.302;8.134;2023-08-06T04:26:33;2.72;;;2.15;;
47894;SDS011;33653;52.302;8.134;2023-08-06T04:29:01;3.58;;;2.80;;
47894;SDS011;33653;52.302;8.134;2023-08-06T04:31:29;3.75;;;3.13;;
47894;SDS011;33653;52.302;8.134;2023-08-06T04:33:58;4.32;;;3.03;;
47894;SDS011;33653;52.302;8.134;2023-08-06T04:36:27;4.78;;;3.50;;
47894;SDS011;33653;52.302;8.134;2023-08-06T04:38:55;3.92;;;2.70;;
47894;SDS011;33653;52.302;8.134;2023-08-06T04:41:24;3.55;;;2.75;;
47894;SDS011;33653;52.302;8.134;2023-08-06T04:43:52;3.53;;;2.67;;
47894;SDS011;33653;52.302;8.134;2023-08-06T04:46:22;3.65;;;2.65;;
47894;SDS011;33653;52.302;8.134;2023-08-06T04:48:50;3.88;;;2.80;;
47894;SDS011;33653;52.302;8.134;2023-08-06T04:51:19;4.15;;;2.40;;
47894;SDS011;33653;52.302;8.134;2023-08-06T04:53:47;2.60;;;2.35;;
47894;SDS011;33653;52.302;8.134;2023-08-06T04:56:15;2.83;;;2.28;;
47894;SDS011;33653;52.302;8.134;2023-08-06T04:58:44;3.85;;;3.08;;
47894;SDS011;33653;52.302;8.134;2023-08-06T05:01:12;4.70;;;3.00;;
47894;SDS011;33653;52.302;8.134;2023-08-06T05:03:40;2.80;;;2.58;;
47894;SDS011;33653;52.302;8.134;2023-08-06T05:06:09;3.70;;;2.88;;
47894;SDS011;33653;52.302;8.134;2023-08-06T05:08:38;3.22;;;2.50;;
47894;SDS011;33653;52.302;8.134;2023-08-06T05:14:03;6.18;;;3.60;;
47894;SDS011;33653;52.302;8.134;2023-08-06T05:16:36;13.13;;;3.47;;
47894;SDS011;33653;52.302;8.134;2023-08-06T05:19:19;4.75;;;3.10;;
47894;SDS011;33653;52.302;8.134;2023-08-06T05:21:47;4.38;;;2.95;;
47894;SDS011;33653;52.302;8.134;2023-08-06T05:24:15;3.40;;;2.92;;
47894;SDS011;33653;52.302;8.134;2023-08-06T05:26:43;4.82;;;3.15;;
47894;SDS011;33653;52.302;8.134;2023-08-06T05:29:13;7.50;;;3.05;;
47894;SDS011;33653;52.302;8.134;2023-08-06T05:31:43;3.45;;;2.40;;
47894;SDS011;33653;52.302;8.134;2023-08-06T05:34:12;2.92;;;2.67;;
47894;SDS011;33653;52.302;8.134;2023-08-06T05:36:40;5.43;;;2.95;;
47894;SDS011;33653;52.302;8.134;2023-08-06T05:39:08;5.38;;;2.67;;
47894;SDS011;33653;52.302;8.134;2023-08-06T05:41:36;3.83;;;2.95;;
47894;SDS011;33653;52.302;8.134;2023-08-06T05:44:05;2.88;;;2.38;;
47894;SDS011;33653;52.302;8.134;2023-08-06T05:46:33;8.98;;;3.28;;
47894;SDS011;33653;52.302;8.134;2023-08-06T05:49:01;5.03;;;3.60;;
47894;SDS011;33653;52.302;8.134;2023-08-06T05:51:30;6.65;;;2.88;;
47894;SDS011;33653;52.302;8.134;2023-08-06T05:53:59;4.68;;;2.90;;
47894;SDS011;33653;52.302;8.134;2023-08-06T05:56:27;3.42;;;2.63;;
47894;SDS011;33653;52.302;8.134;2023-08-06T05:58:55;4.25;;;3.40;;
47894;SDS011;33653;52.302;8.134;2023-08-06T06:01:23;3.92;;;2.97;;
47894;SDS011;33653;52.302;8.134;2023-08-06T06:03:52;3.65;;;3.08;;
47894;SDS011;33653;52.302;8.134;2023-08-06T06:06:20;4.15;;;3.38;;
47894;SDS011;33653;52.302;8.134;2023-08-06T06:08:49;14.57;;;3.63;;
47894;SDS011;33653;52.302;8.134;2023-08-06T06:11:17;5.47;;;3.13;;
47894;SDS011;33653;52.302;8.134;2023-08-06T06:13:50;4.05;;;3.17;;
47894;SDS011;33653;52.302;8.134;2023-08-06T06:16:19;3.58;;;2.85;;
47894;SDS011;33653;52.302;8.134;2023-08-06T06:18:47;6.35;;;3.67;;
47894;SDS011;33653;52.302;8.134;2023-08-06T06:21:15;5.32;;;3.28;;
47894;SDS011;33653;52.302;8.134;2023-08-06T06:23:44;3.20;;;2.90;;
47894;SDS011;33653;52.302;8.134;2023-08-06T06:26:12;6.75;;;2.88;;
47894;SDS011;33653;52.302;8.134;2023-08-06T06:28:40;3.42;;;2.17;;
47894;SDS011;33653;52.302;8.134;2023-08-06T06:31:09;4.78;;;3.40;;
47894;SDS011;33653;52.302;8.134;2023-08-06T06:33:39;2.70;;;2.15;;
47894;SDS011;33653;52.302;8.134;2023-08-06T06:36:07;5.53;;;3.33;;
47894;SDS011;33653;52.302;8.134;2023-08-06T06:38:36;4.93;;;3.50;;
47894;SDS011;33653;52.302;8.134;2023-08-06T06:41:05;4.65;;;3.30;;
47894;SDS011;33653;52.302;8.134;2023-08-06T06:43:33;4.15;;;2.95;;
47894;SDS011;33653;52.302;8.134;2023-08-06T06:46:02;5.13;;;3.15;;
47894;SDS011;33653;52.302;8.134;2023-08-06T06:48:31;3.25;;;2.95;;
47894;SDS011;33653;52.302;8.134;2023-08-06T06:51:00;6.47;;;3.42;;
47894;SDS011;33653;52.302;8.134;2023-08-06T06:53:30;3.45;;;2.97;;
47894;SDS011;33653;52.302;8.134;2023-08-06T06:56:03;3.60;;;2.50;;
47894;SDS011;33653;52.302;8.134;2023-08-06T06:58:32;5.15;;;2.72;;
47894;SDS011;33653;52.302;8.134;2023-08-06T07:01:00;4.85;;;2.65;;
47894;SDS011;33653;52.302;8.134;2023-08-06T07:03:28;5.65;;;2.45;;
47894;SDS011;33653;52.302;8.134;2023-08-06T07:05:57;3.83;;;2.65;;
47894;SDS011;33653;52.302;8.134;2023-08-06T07:08:26;2.80;;;2.50;;
47894;SDS011;33653;52.302;8.134;2023-08-06T07:11:02;8.00;;;2.80;;
47894;SDS011;33653;52.302;8.134;2023-08-06T07:13:32;5.13;;;2.97;;
47894;SDS011;33653;52.302;8.134;2023-08-06T07:16:01;4.30;;;3.05;;
47894;SDS011;33653;52.302;8.134;2023-08-06T07:18:30;7.80;;;2.85;;
47894;SDS011;33653;52.302;8.134;2023-08-06T07:20:58;4.30;;;3.20;;
47894;SDS011;33653;52.302;8.134;2023-08-06T07:23:28;4.82;;;3.17;;
47894;SDS011;33653;52.302;8.134;2023-08-06T07:25:56;3.67;;;3.08;;
47894;SDS011;33653;52.302;8.134;2023-08-06T07:28:24;3.38;;;3.00;;
47894;SDS011;33653;52.302;8.134;2023-08-06T07:30:53;5.63;;;3.63;;
47894;SDS011;33653;52.302;8.134;2023-08-06T07:33:21;8.43;;;3.47;;
47894;SDS011;33653;52.302;8.134;2023-08-06T07:35:49;4.95;;;3.60;;
47894;SDS011;33653;52.302;8.134;2023-08-06T07:38:18;3.60;;;2.90;;
47894;SDS011;33653;52.302;8.134;2023-08-06T07:40:47;7.38;;;3.55;;
47894;SDS011;33653;52.302;8.134;2023-08-06T07:43:16;3.33;;;2.80;;
47894;SDS011;33653;52.302;8.134;2023-08-06T07:45:44;4.05;;;3.00;;
47894;SDS011;33653;52.302;8.134;2023-08-06T07:48:12;5.00;;;3.38;;
47894;SDS011;33653;52.302;8.134;2023-08-06T07:50:42;4.43;;;3.00;;
47894;SDS011;33653;52.302;8.134;2023-08-06T07:53:17;9.38;;;3.08;;
47894;SDS011;33653;52.302;8.134;2023-08-06T07:55:52;4.97;;;3.03;;
47894;SDS011;33653;52.302;8.134;2023-08-06T07:58:21;5.28;;;3.28;;
47894;SDS011;33653;52.302;8.134;2023-08-06T08:00:51;4.65;;;3.30;;
47894;SDS011;33653;52.302;8.134;2023-08-06T08:03:20;4.15;;;3.08;;
47894;SDS011;33653;52.302;8.134;2023-08-06T08:05:48;4.15;;;3.05;;
47894;SDS011;33653;52.302;8.134;2023-08-06T08:08:16;10.73;;;3.50;;
47894;SDS011;33653;52.302;8.134;2023-08-06T08:10:45;3.85;;;2.97;;
47894;SDS011;33653;52.302;8.134;2023-08-06T08:13:13;3.25;;;2.88;;
47894;SDS011;33653;52.302;8.134;2023-08-06T08:15:41;4.53;;;3.22;;
47894;SDS011;33653;52.302;8.134;2023-08-06T08:18:10;2.85;;;2.55;;
47894;SDS011;33653;52.302;8.134;2023-08-06T08:20:38;5.95;;;2.90;;
47894;SDS011;33653;52.302;8.134;2023-08-06T08:23:06;2.97;;;2.38;;
47894;SDS011;33653;52.302;8.134;2023-08-06T08:25:34;2.78;;;2.47;;
47894;SDS011;33653;52.302;8.134;2023-08-06T08:28:03;4.72;;;2.50;;
47894;SDS011;33653;52.302;8.134;2023-08-06T08:30:31;4.68;;;2.53;;
47894;SDS011;33653;52.302;8.134;2023-08-06T08:32:59;7.55;;;2.33;;
47894;SDS011;33653;52.302;8.134;2023-08-06T08:35:28;3.25;;;2.38;;
47894;SDS011;33653;52.302;8.134;2023-08-06T08:37:56;5.68;;;2.80;;
47894;SDS011;33653;52.302;8.134;2023-08-06T08:40:30;5.38;;;2.78;;
47894;SDS011;33653;52.302;8.134;2023-08-06T08:43:00;6.15;;;2.80;;
47894;SDS011;33653;52.302;8.134;2023-08-06T08:45:28;15.50;;;3.00;;
47894;SDS011;33653;52.302;8.134;2023-08-06T08:47:57;3.60;;;2.50;;
47894;SDS011;33653;52.302;8.134;2023-08-06T08:50:25;6.75;;;3.53;;
47894;SDS011;33653;52.302;8.134;2023-08-06T08:52:55;5.00;;;2.70;;
47894;SDS011;33653;52.302;8.134;2023-08-06T08:55:24;6.13;;;2.73;;
47894;SDS011;33653;52.302;8.134;2023-08-06T08:57:52;3.67;;;2.45;;
47894;SDS011;33653;52.302;8.134;2023-08-06T09:00:20;2.72;;;2.17;;
47894;SDS011;33653;52.302;8.134;2023-08-06T09:02:49;2.78;;;2.17;;
47894;SDS011;33653;52.302;8.134;2023-08-06T09:05:17;2.58;;;2.28;;
47894;SDS011;33653;52.302;8.134;2023-08-06T09:07:47;3.13;;;2.50;;
47894;SDS011;33653;52.302;8.134;2023-08-06T09:10:16;3.28;;;2.72;;
47894;SDS011;33653;52.302;8.134;2023-08-06T09:12:45;3.25;;;2.60;;
47894;SDS011;33653;52.302;8.134;2023-08-06T09:15:15;2.85;;;2.50;;
47894;SDS011;33653;52.302;8.134;2023-08-06T09:17:43;2.40;;;1.85;;
47894;SDS011;33653;52.302;8.134;2023-08-06T09:20:12;2.28;;;1.98;;
47894;SDS011;33653;52.302;8.134;2023-08-06T09:22:41;4.25;;;2.70;;
47894;SDS011;33653;52.302;8.134;2023-08-06T09:25:11;5.43;;;2.00;;
47894;SDS011;33653;52.302;8.134;2023-08-06T09:27:41;2.35;;;1.65;;
47894;SDS011;33653;52.302;8.134;2023-08-06T09:30:19;2.25;;;1.95;;
47894;SDS011;33653;52.302;8.134;2023-08-06T09:33:01;7.57;;;3.75;;
47894;SDS011;33653;52.302;8.134;2023-08-06T09:35:30;3.78;;;1.98;;
47894;SDS011;33653;52.302;8.134;2023-08-06T09:38:05;2.80;;;2.10;;
47894;SDS011;33653;52.302;8.134;2023-08-06T09:40:35;3.17;;;2.28;;
47894;SDS011;33653;52.302;8.134;2023-08-06T09:43:04;3.15;;;1.80;;
47894;SDS011;33653;52.302;8.134;2023-08-06T09:45:34;2.58;;;1.80;;
47894;SDS011;33653;52.302;8.134;2023-08-06T09:48:08;3.25;;;1.80;;
47894;SDS011;33653;52.302;8.134;2023-08-06T09:50:38;4.15;;;1.95;;
47894;SDS011;33653;52.302;8.134;2023-08-06T09:53:07;2.28;;;1.85;;
47894;SDS011;33653;52.302;8.134;2023-08-06T09:55:36;6.80;;;1.85;;
47894;SDS011;33653;52.302;8.134;2023-08-06T09:58:05;2.15;;;1.80;;
47894;SDS011;33653;52.302;8.134;2023-08-06T10:00:34;7.28;;;1.98;;
47894;SDS011;33653;52.302;8.134;2023-08-06T10:03:06;3.75;;;2.15;;
47894;SDS011;33653;52.302;8.134;2023-08-06T10:05:35;2.50;;;2.08;;
47894;SDS011;33653;52.302;8.134;2023-08-06T10:10:33;3.20;;;2.13;;
47894;SDS011;33653;52.302;8.134;2023-08-06T10:13:03;3.42;;;1.92;;
47894;SDS011;33653;52.302;8.134;2023-08-06T10:18:03;3.28;;;1.77;;
47894;SDS011;33653;52.302;8.134;2023-08-06T10:20:36;2.43;;;1.80;;
47894;SDS011;33653;52.302;8.134;2023-08-06T10:23:05;4.57;;;1.70;;
47894;SDS011;33653;52.302;8.134;2023-08-06T10:25:40;3.65;;;2.13;;
47894;SDS011;33653;52.302;8.134;2023-08-06T10:28:12;2.75;;;1.75;;
47894;SDS011;33653;52.302;8.134;2023-08-06T10:30:45;2.30;;;1.30;;
47894;SDS011;33653;52.302;8.134;2023-08-06T10:33:14;1.95;;;1.33;;
47894;SDS011;33653;52.302;8.134;2023-08-06T10:35:46;2.03;;;1.40;;
47894;SDS011;33653;52.302;8.134;2023-08-06T10:38:17;2.00;;;1.50;;
47894;SDS011;33653;52.302;8.134;2023-08-06T10:43:32;2.72;;;1.80;;
47894;SDS011;33653;52.302;8.134;2023-08-06T10:46:09;2.50;;;1.45;;
47894;SDS011;33653;52.302;8.134;2023-08-06T10:48:39;2.38;;;1.77;;
47894;SDS011;33653;52.302;8.134;2023-08-06T10:51:09;2.85;;;1.85;;
47894;SDS011;33653;52.302;8.134;2023-08-06T10:53:47;2.42;;;1.90;;
47894;SDS011;33653;52.302;8.134;2023-08-06T10:56:18;2.22;;;1.60;;
47894;SDS011;33653;52.302;8.134;2023-08-06T10:58:51;2.33;;;1.80;;
47894;SDS011;33653;52.302;8.134;2023-08-06T11:01:28;3.95;;;2.15;;
47894;SDS011;33653;52.302;8.134;2023-08-06T11:04:01;3.97;;;1.75;;
47894;SDS011;33653;52.302;8.134;2023-08-06T11:06:33;2.28;;;1.90;;
47894;SDS011;33653;52.302;8.134;2023-08-06T11:09:01;3.78;;;1.88;;
47894;SDS011;33653;52.302;8.134;2023-08-06T11:11:29;2.88;;;1.80;;
47894;SDS011;33653;52.302;8.134;2023-08-06T11:13:58;2.70;;;1.77;;
47894;SDS011;33653;52.302;8.134;2023-08-06T11:16:26;3.25;;;2.00;;
47894;SDS011;33653;52.302;8.134;2023-08-06T11:18:55;4.05;;;1.98;;
47894;SDS011;33653;52.302;8.134;2023-08-06T11:21:24;2.27;;;1.90;;
47894;SDS011;33653;52.302;8.134;2023-08-06T11:23:53;2.92;;;1.92;;
47894;SDS011;33653;52.302;8.134;2023-08-06T11:26:22;2.20;;;1.60;;
47894;SDS011;33653;52.302;8.134;2023-08-06T11:28:51;3.10;;;2.10;;
47894;SDS011;33653;52.302;8.134;2023-08-06T11:31:20;2.70;;;1.98;;
47894;SDS011;33653;52.302;8.134;2023-08-06T11:33:50;4.50;;;2.10;;
47894;SDS011;33653;52.302;8.134;2023-08-06T11:36:31;2.58;;;1.75;;
47894;SDS011;33653;52.302;8.134;2023-08-06T11:39:08;3.17;;;2.15;;
47894;SDS011;33653;52.302;8.134;2023-08-06T11:41:36;2.13;;;1.80;;
47894;SDS011;33653;52.302;8.134;2023-08-06T11:44:06;1.77;;;1.65;;
47894;SDS011;33653;52.302;8.134;2023-08-06T11:46:49;2.03;;;1.80;;
47894;SDS011;33653;52.302;8.134;2023-08-06T11:52:13;2.40;;;2.03;;
47894;SDS011;33653;52.302;8.134;2023-08-06T11:54:47;2.85;;;2.05;;
47894;SDS011;33653;52.302;8.134;2023-08-06T11:57:26;3.08;;;1.98;;
47894;SDS011;33653;52.302;8.134;2023-08-06T12:00:03;1.73;;;1.60;;
47894;SDS011;33653;52.302;8.134;2023-08-06T12:02:39;2.03;;;1.80;;
47894;SDS011;33653;52.302;8.134;2023-08-06T12:07:48;10.13;;;4.28;;
47894;SDS011;33653;52.302;8.134;2023-08-06T12:10:19;8.95;;;3.55;;
47894;SDS011;33653;52.302;8.134;2023-08-06T12:12:49;3.40;;;2.50;;
47894;SDS011;33653;52.302;8.134;2023-08-06T12:15:18;4.00;;;2.08;;
47894;SDS011;33653;52.302;8.134;2023-08-06T12:17:46;5.70;;;2.58;;
47894;SDS011;33653;52.302;8.134;2023-08-06T12:20:14;4.68;;;1.92;;
47894;SDS011;33653;52.302;8.134;2023-08-06T12:22:43;3.35;;;1.90;;
47894;SDS011;33653;52.302;8.134;2023-08-06T12:25:13;3.47;;;2.13;;
47894;SDS011;33653;52.302;8.134;2023-08-06T12:27:42;1.85;;;1.70;;
47894;SDS011;33653;52.302;8.134;2023-08-06T12:30:12;4.28;;;2.65;;
47894;SDS011;33653;52.302;8.134;2023-08-06T12:32:40;2.47;;;2.00;;
47894;SDS011;33653;52.302;8.134;2023-08-06T12:35:09;3.25;;;1.83;;
47894;SDS011;33653;52.302;8.134;2023-08-06T12:37:39;2.17;;;1.77;;
47894;SDS011;33653;52.302;8.134;2023-08-06T12:40:08;2.92;;;2.05;;
47894;SDS011;33653;52.302;8.134;2023-08-06T12:42:57;2.65;;;2.15;;
47894;SDS011;33653;52.302;8.134;2023-08-06T12:45:26;4.18;;;2.00;;
47894;SDS011;33653;52.302;8.134;2023-08-06T12:47:54;4.15;;;2.00;;
47894;SDS011;33653;52.302;8.134;2023-08-06T12:50:24;3.33;;;2.10;;
47894;SDS011;33653;52.302;8.134;2023-08-06T12:52:52;3.40;;;2.05;;
47894;SDS011;33653;52.302;8.134;2023-08-06T12:55:21;2.95;;;2.38;;
47894;SDS011;33653;52.302;8.134;2023-08-06T12:57:50;4.05;;;2.17;;
47894;SDS011;33653;52.302;8.134;2023-08-06T13:00:26;2.58;;;1.77;;
47894;SDS011;33653;52.302;8.134;2023-08-06T13:02:55;3.67;;;2.15;;
47894;SDS011;33653;52.302;8.134;2023-08-06T13:05:24;6.03;;;2.25;;
47894;SDS011;33653;52.302;8.134;2023-08-06T13:07:53;4.20;;;1.90;;
47894;SDS011;33653;52.302;8.134;2023-08-06T13:10:21;2.65;;;2.33;;
47894;SDS011;33653;52.302;8.134;2023-08-06T13:12:51;2.50;;;2.25;;
47894;SDS011;33653;52.302;8.134;2023-08-06T13:15:20;3.78;;;2.00;;
47894;SDS011;33653;52.302;8.134;2023-08-06T13:17:49;2.57;;;2.00;;
47894;SDS011;33653;52.302;8.134;2023-08-06T13:20:18;3.38;;;2.00;;
47894;SDS011;33653;52.302;8.134;2023-08-06T13:22:48;3.10;;;1.85;;
47894;SDS011;33653;52.302;8.134;2023-08-06T13:25:21;2.75;;;2.15;;
47894;SDS011;33653;52.302;8.134;2023-08-06T13:27:50;3.40;;;2.28;;
47894;SDS011;33653;52.302;8.134;2023-08-06T13:30:19;6.47;;;2.17;;
47894;SDS011;33653;52.302;8.134;2023-08-06T13:32:47;4.18;;;2.28;;
47894;SDS011;33653;52.302;8.134;2023-08-06T13:35:15;3.55;;;2.28;;
47894;SDS011;33653;52.302;8.134;2023-08-06T13:37:44;2.83;;;2.42;;
47894;SDS011;33653;52.302;8.134;2023-08-06T13:40:13;2.60;;;2.33;;
47894;SDS011;33653;52.302;8.134;2023-08-06T13:42:42;5.53;;;2.78;;
47894;SDS011;33653;52.302;8.134;2023-08-06T13:45:10;4.38;;;2.80;;
47894;SDS011;33653;52.302;8.134;2023-08-06T13:47:39;2.75;;;2.15;;
47894;SDS011;33653;52.302;8.134;2023-08-06T13:50:08;4.05;;;2.63;;
47894;SDS011;33653;52.302;8.134;2023-08-06T13:52:36;4.15;;;2.63;;
47894;SDS011;33653;52.302;8.134;2023-08-06T13:55:05;4.22;;;2.70;;
47894;SDS011;33653;52.302;8.134;2023-08-06T13:57:34;2.85;;;2.55;;
47894;SDS011;33653;52.302;8.134;2023-08-06T14:00:03;2.85;;;2.50;;
47894;SDS011;33653;52.302;8.134;2023-08-06T14:02:38;3.42;;;2.50;;
47894;SDS011;33653;52.302;8.134;2023-08-06T14:05:07;3.20;;;2.80;;
47894;SDS011;33653;52.302;8.134;2023-08-06T14:07:35;5.75;;;2.88;;
47894;SDS011;33653;52.302;8.134;2023-08-06T14:10:03;5.63;;;2.90;;
47894;SDS011;33653;52.302;8.134;2023-08-06T14:12:33;4.05;;;3.03;;
47894;SDS011;33653;52.302;8.134;2023-08-06T14:15:02;3.70;;;3.08;;
47894;SDS011;33653;52.302;8.134;2023-08-06T14:17:31;4.53;;;3.13;;
47894;SDS011;33653;52.302;8.134;2023-08-06T14:19:59;3.78;;;2.78;;
47894;SDS011;33653;52.302;8.134;2023-08-06T14:22:30;4.97;;;3.50;;
47894;SDS011;33653;52.302;8.134;2023-08-06T14:24:59;3.97;;;3.28;;
47894;SDS011;33653;52.302;8.134;2023-08-06T14:27:27;3.55;;;2.92;;
47894;SDS011;33653;52.302;8.134;2023-08-06T14:29:56;3.95;;;3.10;;
47894;SDS011;33653;52.302;8.134;2023-08-06T14:32:24;4.93;;;3.78;;
47894;SDS011;33653;52.302;8.134;2023-08-06T14:34:53;4.55;;;3.35;;
47894;SDS011;33653;52.302;8.134;2023-08-06T14:37:21;4.53;;;3.65;;
47894;SDS011;33653;52.302;8.134;2023-08-06T14:39:50;5.75;;;3.30;;
47894;SDS011;33653;52.302;8.134;2023-08-06T14:42:18;4.95;;;3.45;;
47894;SDS011;33653;52.302;8.134;2023-08-06T14:44:47;3.38;;;2.60;;
47894;SDS011;33653;52.302;8.134;2023-08-06T14:47:15;3.60;;;3.00;;
47894;SDS011;33653;52.302;8.134;2023-08-06T14:49:44;4.57;;;3.20;;
47894;SDS011;33653;52.302;8.134;2023-08-06T14:52:12;5.07;;;3.22;;
47894;SDS011;33653;52.302;8.134;2023-08-06T14:54:40;2.88;;;2.53;;
47894;SDS011;33653;52.302;8.134;2023-08-06T14:57:09;3.15;;;2.53;;
47894;SDS011;33653;52.302;8.134;2023-08-06T14:59:37;4.70;;;3.20;;
47894;SDS011;33653;52.302;8.134;2023-08-06T15:02:07;3.17;;;2.70;;
47894;SDS011;33653;52.302;8.134;2023-08-06T15:04:35;3.78;;;2.85;;
47894;SDS011;33653;52.302;8.134;2023-08-06T15:07:03;4.82;;;2.63;;
47894;SDS011;33653;52.302;8.134;2023-08-06T15:09:31;4.22;;;3.10;;
47894;SDS011;33653;52.302;8.134;2023-08-06T15:12:20;4.32;;;3.10;;
47894;SDS011;33653;52.302;8.134;2023-08-06T15:14:48;4.53;;;2.85;;
47894;SDS011;33653;52.302;8.134;2023-08-06T15:17:16;6.88;;;3.75;;
47894;SDS011;33653;52.302;8.134;2023-08-06T15:19:45;4.82;;;3.33;;
47894;SDS011;33653;52.302;8.134;2023-08-06T15:22:13;4.40;;;3.28;;
47894;SDS011;33653;52.302;8.134;2023-08-06T15:24:41;3.90;;;2.92;;